Terminal Aerodrome Forecast
Issued by NWS

Home | Current Version | Previous Version | Text Only | Print | Product List | Glossary On
Versions: 1 2 3 4 5 6 7 8 9 10 11 12 13
000
FTUS46 KMTR 241734
TAFSNS
TAF
KSNS 241734Z 2418/2518 12014G22KT P6SM VCSH BKN070
      TEMPO 2418/2420 18018G28KT -SHRA BKN050
     FM242000 13014G20KT 6SM -RA BKN020 OVC040
     FM250300 10010KT P6SM -SHRA OVC040
     FM250600 12004KT P6SM VCSH BKN040
     FM251000 VRB03KT P6SM SCT020
     FM251600 25005KT P6SM SCT030=

USA.gov is the U.S. government's official web portal to all federal, state and local government web resources and services.